Time;durP1;ratioP1;P1;durP2;ratioP2;P2;SDS_P1;SDS_P2;PMS_P1;PMS_P2;Temp;Humidity;BMP_temperature;BMP_pressure;BME280_temperature;BME280_humidity;BME280_pressure;Samples;Min_cycle;Max_cycle;Signal;HPM_P1;HPM_P2
2023/07/23 00:00:10;;;;;;;4.53;3.00;;;;;;;;;;5015686;28;20252;-76
2023/07/23 00:02:35;;;;;;;4.25;2.88;;;;;;;;;;5015635;28;20268;-76
2023/07/23 00:05:00;;;;;;;3.80;2.60;;;;;;;;;;5015681;28;20024;-77
2023/07/23 00:07:25;;;;;;;5.00;3.00;;;;;;;;;;5014558;28;20343;-76
2023/07/23 00:09:51;;;;;;;3.80;2.83;;;;;;;;;;5014275;28;20274;-77
2023/07/23 00:12:16;;;;;;;4.53;2.80;;;;;;;;;;5015544;28;20263;-76
2023/07/23 00:14:41;;;;;;;4.55;2.85;;;;;;;;;;5015355;28;20283;-76
2023/07/23 00:17:07;;;;;;;4.17;2.57;;;;;;;;;;5015320;28;20028;-76
2023/07/23 00:19:33;;;;;;;4.45;2.70;;;;;;;;;;5014101;28;20264;-77
2023/07/23 00:21:58;;;;;;;4.55;2.95;;;;;;;;;;5015279;28;20037;-76
2023/07/23 00:24:23;;;;;;;4.82;3.15;;;;;;;;;;5015382;28;20022;-76
2023/07/23 00:26:49;;;;;;;4.13;2.97;;;;;;;;;;5015239;28;20029;-76
2023/07/23 00:29:14;;;;;;;5.33;2.90;;;;;;;;;;5015425;28;20057;-77
2023/07/23 00:31:39;;;;;;;4.80;2.88;;;;;;;;;;5013862;28;20269;-77
2023/07/23 00:34:06;;;;;;;4.97;2.97;;;;;;;;;;5015087;28;20018;-77
2023/07/23 00:36:31;;;;;;;4.20;2.88;;;;;;;;;;5015611;28;20267;-76
2023/07/23 00:38:57;;;;;;;10.07;3.30;;;;;;;;;;5015030;28;20441;-76
2023/07/23 00:41:22;;;;;;;5.03;2.83;;;;;;;;;;5014959;28;20346;-77
2023/07/23 00:43:47;;;;;;;4.93;3.10;;;;;;;;;;5015197;28;20080;-75
2023/07/23 00:46:13;;;;;;;3.97;2.80;;;;;;;;;;5015022;28;20557;-76
2023/07/23 00:48:38;;;;;;;6.97;3.10;;;;;;;;;;5015063;28;20678;-76
2023/07/23 00:51:03;;;;;;;3.15;2.65;;;;;;;;;;5015048;28;20033;-76
2023/07/23 00:53:29;;;;;;;4.57;2.65;;;;;;;;;;5015084;28;20053;-76
2023/07/23 00:55:55;;;;;;;6.80;2.70;;;;;;;;;;5014757;28;20113;-76
2023/07/23 00:58:21;;;;;;;4.30;2.88;;;;;;;;;;5014582;28;20026;-76
2023/07/23 01:00:46;;;;;;;5.68;2.88;;;;;;;;;;5014594;28;20083;-76
2023/07/23 01:03:12;;;;;;;4.40;3.20;;;;;;;;;;5013294;28;20033;-76
2023/07/23 01:05:41;;;;;;;3.58;2.80;;;;;;;;;;5015023;28;20030;-76
2023/07/23 01:08:07;;;;;;;4.05;2.80;;;;;;;;;;5014551;28;20022;-76
2023/07/23 01:10:33;;;;;;;3.97;2.95;;;;;;;;;;5013198;28;20021;-76
2023/07/23 01:12:59;;;;;;;4.25;2.78;;;;;;;;;;5014929;28;20022;-75
2023/07/23 01:15:25;;;;;;;7.07;2.97;;;;;;;;;;5014278;28;20036;-75
2023/07/23 01:17:51;;;;;;;3.28;2.63;;;;;;;;;;5014453;28;20030;-76
2023/07/23 01:20:16;;;;;;;8.13;3.00;;;;;;;;;;5014192;28;20041;-76
2023/07/23 01:22:42;;;;;;;4.03;2.78;;;;;;;;;;5014463;28;20029;-75
2023/07/23 01:25:07;;;;;;;6.35;2.90;;;;;;;;;;5014448;28;20014;-76
2023/07/23 01:27:33;;;;;;;4.82;2.90;;;;;;;;;;5013989;28;20018;-76
2023/07/23 01:29:58;;;;;;;4.45;2.95;;;;;;;;;;5014640;28;20101;-76
2023/07/23 01:32:23;;;;;;;7.53;2.83;;;;;;;;;;5013667;28;20053;-76
2023/07/23 01:34:48;;;;;;;7.15;2.70;;;;;;;;;;5013887;28;20053;-76
2023/07/23 01:37:15;;;;;;;3.50;2.63;;;;;;;;;;5014166;28;20068;-76
2023/07/23 01:39:42;;;;;;;5.95;2.63;;;;;;;;;;5012594;28;20075;-76
2023/07/23 01:42:12;;;;;;;4.10;2.65;;;;;;;;;;5013822;28;20090;-76
2023/07/23 01:44:38;;;;;;;3.95;2.60;;;;;;;;;;5013779;28;20025;-77
2023/07/23 01:47:03;;;;;;;4.07;2.88;;;;;;;;;;5013809;28;20378;-76
2023/07/23 01:49:29;;;;;;;5.38;2.58;;;;;;;;;;5013711;28;20068;-75
2023/07/23 01:51:54;;;;;;;4.85;2.90;;;;;;;;;;5013732;28;20025;-76
2023/07/23 01:54:20;;;;;;;3.75;2.50;;;;;;;;;;5013592;28;20026;-76
2023/07/23 01:56:46;;;;;;;4.07;2.53;;;;;;;;;;5013595;28;20108;-76
2023/07/23 01:59:11;;;;;;;4.38;2.90;;;;;;;;;;5012285;28;20018;-75
2023/07/23 02:01:36;;;;;;;4.63;2.70;;;;;;;;;;5013569;28;20041;-75
2023/07/23 02:04:01;;;;;;;4.75;2.63;;;;;;;;;;5013513;28;20392;-75
2023/07/23 02:06:27;;;;;;;4.28;3.00;;;;;;;;;;5013449;28;20030;-75
2023/07/23 02:08:52;;;;;;;3.97;2.90;;;;;;;;;;5013524;28;20029;-76
2023/07/23 02:11:17;;;;;;;3.55;2.83;;;;;;;;;;5013638;28;20496;-76
2023/07/23 02:13:44;;;;;;;6.27;2.70;;;;;;;;;;5013780;28;20385;-76
2023/07/23 02:16:18;;;;;;;4.55;3.00;;;;;;;;;;5013484;28;20279;-75
2023/07/23 02:18:43;;;;;;;5.60;2.72;;;;;;;;;;5013478;28;20037;-76
2023/07/23 02:21:09;;;;;;;6.93;2.97;;;;;;;;;;5013867;28;20026;-76
2023/07/23 02:23:34;;;;;;;4.68;3.00;;;;;;;;;;5013411;28;20096;-76
2023/07/23 02:25:59;;;;;;;4.25;2.60;;;;;;;;;;5013330;28;20389;-76
2023/07/23 02:28:25;;;;;;;7.33;2.93;;;;;;;;;;5013212;28;20017;-75
2023/07/23 02:30:59;;;;;;;5.30;2.90;;;;;;;;;;5011457;28;20639;-75
2023/07/23 02:33:25;;;;;;;3.65;2.70;;;;;;;;;;5012707;28;20386;-75
2023/07/23 02:35:51;;;;;;;4.10;2.90;;;;;;;;;;5011386;28;20575;-75
2023/07/23 02:38:17;;;;;;;3.53;2.67;;;;;;;;;;5013103;28;20121;-75
2023/07/23 02:40:42;;;;;;;5.07;2.80;;;;;;;;;;5012764;28;20018;-75
2023/07/23 02:43:09;;;;;;;4.07;2.90;;;;;;;;;;5014061;28;20109;-75
2023/07/23 02:45:35;;;;;;;6.70;2.55;;;;;;;;;;5017289;28;20072;-75
2023/07/23 02:48:00;;;;;;;5.13;2.45;;;;;;;;;;5017047;28;20034;-76
2023/07/23 02:50:26;;;;;;;3.75;2.60;;;;;;;;;;5017057;28;20484;-75
2023/07/23 02:52:51;;;;;;;3.83;2.60;;;;;;;;;;5017301;28;20424;-76
2023/07/23 02:55:17;;;;;;;3.88;2.58;;;;;;;;;;5016833;28;20022;-75
2023/07/23 02:57:42;;;;;;;3.40;2.40;;;;;;;;;;5015610;28;20068;-75
2023/07/23 03:00:08;;;;;;;3.33;2.60;;;;;;;;;;5017001;28;20079;-75
2023/07/23 03:02:34;;;;;;;6.03;2.72;;;;;;;;;;5016812;28;20267;-76
2023/07/23 03:04:59;;;;;;;4.07;2.20;;;;;;;;;;5016835;28;20366;-75
2023/07/23 03:07:24;;;;;;;4.43;2.72;;;;;;;;;;5016636;28;20333;-75
2023/07/23 03:09:49;;;;;;;6.30;2.70;;;;;;;;;;5017016;28;20080;-75
2023/07/23 03:12:15;;;;;;;4.17;2.57;;;;;;;;;;5016671;28;20025;-76
2023/07/23 03:14:40;;;;;;;4.80;2.70;;;;;;;;;;5016777;28;20746;-76
2023/07/23 03:17:05;;;;;;;4.07;2.60;;;;;;;;;;5016495;28;20259;-76
2023/07/23 03:19:31;;;;;;;3.57;2.47;;;;;;;;;;5015305;28;20092;-76
2023/07/23 03:21:56;;;;;;;4.77;2.70;;;;;;;;;;5015038;28;20287;-75
2023/07/23 03:24:21;;;;;;;3.70;2.43;;;;;;;;;;5016181;28;20805;-75
2023/07/23 03:26:46;;;;;;;4.97;2.30;;;;;;;;;;5013981;28;20259;-75
2023/07/23 03:29:12;;;;;;;6.33;2.70;;;;;;;;;;5014207;28;20432;-75
2023/07/23 03:31:37;;;;;;;3.67;2.40;;;;;;;;;;5015070;28;20299;-76
2023/07/23 03:34:02;;;;;;;3.13;2.25;;;;;;;;;;5015212;28;20263;-75
2023/07/23 03:36:27;;;;;;;2.47;2.10;;;;;;;;;;5016167;28;20076;-75
2023/07/23 03:38:53;;;;;;;3.30;2.33;;;;;;;;;;5016035;28;20029;-75
2023/07/23 03:41:18;;;;;;;5.20;2.33;;;;;;;;;;5016111;28;20085;-75
2023/07/23 03:43:43;;;;;;;2.80;2.30;;;;;;;;;;5016134;28;20266;-75
2023/07/23 03:46:09;;;;;;;6.60;2.40;;;;;;;;;;5015987;28;20022;-75
2023/07/23 03:48:34;;;;;;;3.58;2.20;;;;;;;;;;5014577;28;20018;-76
2023/07/23 03:50:59;;;;;;;3.30;2.40;;;;;;;;;;5014638;28;20021;-76
2023/07/23 03:53:24;;;;;;;5.13;2.50;;;;;;;;;;5014617;28;20274;-75
2023/07/23 03:55:50;;;;;;;5.93;2.35;;;;;;;;;;5015521;28;20022;-75
2023/07/23 03:58:15;;;;;;;3.95;2.67;;;;;;;;;;5015968;28;20032;-76
2023/07/23 04:00:41;;;;;;;4.55;2.20;;;;;;;;;;5015719;28;20029;-76
2023/07/23 04:03:06;;;;;;;3.45;2.15;;;;;;;;;;5015999;28;20022;-76
2023/07/23 04:05:32;;;;;;;5.33;2.27;;;;;;;;;;5014432;28;20028;-76
2023/07/23 04:07:57;;;;;;;4.68;2.35;;;;;;;;;;5014339;28;20271;-75
2023/07/23 04:10:22;;;;;;;3.40;2.40;;;;;;;;;;5015754;28;20456;-76
2023/07/23 04:12:47;;;;;;;3.40;2.20;;;;;;;;;;5015570;28;20259;-76
2023/07/23 04:15:13;;;;;;;3.85;2.35;;;;;;;;;;5014158;28;20286;-75
2023/07/23 04:17:38;;;;;;;5.27;2.30;;;;;;;;;;5015397;28;20065;-76
2023/07/23 04:20:04;;;;;;;3.27;2.40;;;;;;;;;;5015646;28;20618;-76
2023/07/23 04:22:29;;;;;;;5.43;2.40;;;;;;;;;;5014084;28;20259;-76
2023/07/23 04:24:54;;;;;;;2.97;2.13;;;;;;;;;;5015317;28;20380;-75
2023/07/23 04:27:20;;;;;;;3.00;2.13;;;;;;;;;;5015491;28;20259;-76
2023/07/23 04:29:45;;;;;;;4.33;2.20;;;;;;;;;;5015218;28;20266;-76
2023/07/23 04:32:10;;;;;;;4.60;2.40;;;;;;;;;;5015132;28;20270;-75
2023/07/23 04:34:35;;;;;;;2.50;2.10;;;;;;;;;;5014992;28;20022;-76
2023/07/23 04:37:01;;;;;;;4.70;2.70;;;;;;;;;;5015137;28;20022;-76
2023/07/23 04:39:26;;;;;;;3.60;2.38;;;;;;;;;;5013664;28;20022;-76
2023/07/23 04:41:51;;;;;;;4.83;2.50;;;;;;;;;;5014942;28;20112;-77
2023/07/23 04:44:16;;;;;;;4.28;2.25;;;;;;;;;;5014917;28;20255;-75
2023/07/23 04:46:42;;;;;;;3.90;2.40;;;;;;;;;;5014964;28;20365;-76
2023/07/23 04:49:07;;;;;;;4.35;2.22;;;;;;;;;;5014659;28;20267;-76
2023/07/23 04:51:32;;;;;;;4.63;2.47;;;;;;;;;;5014729;28;20038;-76
2023/07/23 04:53:57;;;;;;;4.93;2.15;;;;;;;;;;5014967;28;20026;-75
2023/07/23 04:56:23;;;;;;;4.73;2.33;;;;;;;;;;5014583;28;20030;-76
2023/07/23 04:58:48;;;;;;;3.78;2.50;;;;;;;;;;5013324;28;20259;-76
2023/07/23 05:01:13;;;;;;;3.43;2.30;;;;;;;;;;5014531;28;20024;-76
2023/07/23 05:03:39;;;;;;;4.25;2.35;;;;;;;;;;5014502;28;20294;-76
2023/07/23 05:06:06;;;;;;;4.50;2.50;;;;;;;;;;5014113;28;20114;-76
2023/07/23 05:08:32;;;;;;;4.22;2.40;;;;;;;;;;5014640;28;20018;-76
2023/07/23 05:11:01;;;;;;;3.33;2.20;;;;;;;;;;5014641;28;20025;-76
2023/07/23 05:13:27;;;;;;;3.40;2.10;;;;;;;;;;5014649;28;20362;-76
2023/07/23 05:15:52;;;;;;;3.88;2.30;;;;;;;;;;5014175;28;20084;-76
2023/07/23 05:18:18;;;;;;;5.65;2.25;;;;;;;;;;5014266;28;20025;-76
2023/07/23 05:20:44;;;;;;;3.20;2.08;;;;;;;;;;5012997;28;20025;-76
2023/07/23 05:23:09;;;;;;;3.72;2.30;;;;;;;;;;5014152;28;20037;-76
2023/07/23 05:25:34;;;;;;;3.70;2.13;;;;;;;;;;5014136;28;20033;-76
2023/07/23 05:28:00;;;;;;;5.57;2.40;;;;;;;;;;5014226;28;20731;-76
2023/07/23 05:30:26;;;;;;;3.55;2.33;;;;;;;;;;5014333;28;20365;-76
2023/07/23 05:32:51;;;;;;;3.65;2.10;;;;;;;;;;5014046;28;20501;-76
2023/07/23 05:35:16;;;;;;;3.17;2.20;;;;;;;;;;5014178;28;20036;-76
2023/07/23 05:37:41;;;;;;;3.85;2.30;;;;;;;;;;5013831;28;20259;-76
2023/07/23 05:40:07;;;;;;;5.73;2.40;;;;;;;;;;5013913;28;20032;-76
2023/07/23 05:42:32;;;;;;;2.92;2.22;;;;;;;;;;5014142;28;20259;-76
2023/07/23 05:44:58;;;;;;;7.60;2.20;;;;;;;;;;5013789;28;20022;-76
2023/07/23 05:47:23;;;;;;;3.15;2.22;;;;;;;;;;5014104;28;20632;-75
2023/07/23 05:49:48;;;;;;;5.25;2.35;;;;;;;;;;5013565;28;20033;-77
2023/07/23 05:52:14;;;;;;;4.73;2.40;;;;;;;;;;5013749;28;20393;-76
2023/07/23 05:54:39;;;;;;;5.25;1.98;;;;;;;;;;5013541;28;20298;-76
2023/07/23 05:57:05;;;;;;;4.63;2.03;;;;;;;;;;5013653;28;20021;-75
2023/07/23 05:59:30;;;;;;;3.25;1.90;;;;;;;;;;5012306;28;20294;-75
2023/07/23 06:01:56;;;;;;;6.55;2.20;;;;;;;;;;5013714;28;20029;-75
2023/07/23 06:04:21;;;;;;;4.67;2.17;;;;;;;;;;5012351;28;20548;-75
2023/07/23 06:06:46;;;;;;;3.20;2.30;;;;;;;;;;5012291;28;20291;-75
2023/07/23 06:09:12;;;;;;;3.03;2.10;;;;;;;;;;5013639;28;20032;-76
2023/07/23 06:11:37;;;;;;;2.72;2.17;;;;;;;;;;5013420;28;20436;-75
2023/07/23 06:14:02;;;;;;;3.35;2.05;;;;;;;;;;5013463;28;20042;-75
2023/07/23 06:16:30;;;;;;;4.97;2.15;;;;;;;;;;5013270;28;20029;-75
2023/07/23 06:18:55;;;;;;;3.72;2.15;;;;;;;;;;5012025;28;20025;-75
2023/07/23 06:21:20;;;;;;;4.70;2.13;;;;;;;;;;5012082;28;20439;-76
2023/07/23 06:23:45;;;;;;;3.73;2.10;;;;;;;;;;5013247;28;20030;-76
2023/07/23 06:26:11;;;;;;;2.70;1.77;;;;;;;;;;5013199;28;20673;-75
2023/07/23 06:28:36;;;;;;;5.20;2.50;;;;;;;;;;5013177;28;20060;-75
2023/07/23 06:31:01;;;;;;;3.85;2.53;;;;;;;;;;5011896;28;20058;-76
2023/07/23 06:33:27;;;;;;;3.00;1.92;;;;;;;;;;5011917;28;20038;-75
2023/07/23 06:35:53;;;;;;;3.38;2.15;;;;;;;;;;5013084;28;20018;-76
2023/07/23 06:38:18;;;;;;;4.93;2.05;;;;;;;;;;5011788;28;20030;-76
2023/07/23 06:40:47;;;;;;;6.32;2.10;;;;;;;;;;5011987;28;20029;-76
2023/07/23 06:43:13;;;;;;;2.90;2.08;;;;;;;;;;5013347;28;20465;-76
2023/07/23 06:45:39;;;;;;;5.15;2.30;;;;;;;;;;5013054;28;20025;-76
2023/07/23 06:48:04;;;;;;;3.70;2.08;;;;;;;;;;5012039;28;20037;-76
2023/07/23 06:50:31;;;;;;;2.63;1.98;;;;;;;;;;5013006;28;20565;-76
2023/07/23 06:52:56;;;;;;;5.43;2.20;;;;;;;;;;5013259;28;20113;-75
2023/07/23 06:55:21;;;;;;;2.63;1.98;;;;;;;;;;5012830;28;20109;-76
2023/07/23 06:57:48;;;;;;;3.05;2.20;;;;;;;;;;5013040;28;20046;-75
2023/07/23 07:00:14;;;;;;;3.08;2.10;;;;;;;;;;5012978;28;20061;-76
2023/07/23 07:02:39;;;;;;;4.72;2.13;;;;;;;;;;5012804;28;20053;-76
2023/07/23 07:05:05;;;;;;;4.65;1.90;;;;;;;;;;5012811;28;20109;-76
2023/07/23 07:07:30;;;;;;;2.90;2.00;;;;;;;;;;5013039;28;20038;-76
2023/07/23 07:09:55;;;;;;;4.00;2.10;;;;;;;;;;5012985;28;20072;-75
2023/07/23 07:12:21;;;;;;;6.07;2.23;;;;;;;;;;5012741;28;20280;-76
2023/07/23 07:14:46;;;;;;;2.17;1.75;;;;;;;;;;5011386;28;20374;-76
2023/07/23 07:17:11;;;;;;;4.63;2.10;;;;;;;;;;5012765;28;20108;-76
2023/07/23 07:19:36;;;;;;;2.23;1.80;;;;;;;;;;5012781;28;20268;-76
2023/07/23 07:22:02;;;;;;;2.38;1.70;;;;;;;;;;5012694;28;20677;-76
2023/07/23 07:24:27;;;;;;;3.97;2.08;;;;;;;;;;5011505;28;20121;-76
2023/07/23 07:26:53;;;;;;;3.35;2.08;;;;;;;;;;5011425;28;20117;-76
2023/07/23 07:29:18;;;;;;;2.75;1.88;;;;;;;;;;5013646;28;20025;-76
2023/07/23 07:31:44;;;;;;;6.45;2.30;;;;;;;;;;5016235;28;20018;-76
2023/07/23 07:34:09;;;;;;;3.35;1.95;;;;;;;;;;5016226;28;20047;-76
2023/07/23 07:36:36;;;;;;;6.40;2.00;;;;;;;;;;5016903;28;20109;-76
2023/07/23 07:39:01;;;;;;;4.15;2.20;;;;;;;;;;5014783;28;20263;-76
2023/07/23 07:41:27;;;;;;;3.75;2.08;;;;;;;;;;5016059;28;20450;-76
2023/07/23 07:43:52;;;;;;;3.43;2.17;;;;;;;;;;5016002;28;20026;-76
2023/07/23 07:46:17;;;;;;;3.23;2.20;;;;;;;;;;5015951;28;20689;-76
2023/07/23 07:48:46;;;;;;;2.80;1.88;;;;;;;;;;5016216;28;21198;-76
2023/07/23 07:51:11;;;;;;;3.78;1.88;;;;;;;;;;5014662;28;20017;-76
2023/07/23 07:53:37;;;;;;;2.83;1.87;;;;;;;;;;5015860;28;20092;-76
2023/07/23 07:56:03;;;;;;;3.72;2.10;;;;;;;;;;5015739;28;20283;-76
2023/07/23 07:58:29;;;;;;;2.97;2.00;;;;;;;;;;5015898;28;20377;-76
2023/07/23 08:00:59;;;;;;;3.30;2.20;;;;;;;;;;5015903;28;20095;-76
2023/07/23 08:03:27;;;;;;;3.17;1.95;;;;;;;;;;5016070;28;20091;-76
2023/07/23 08:05:53;;;;;;;3.72;2.17;;;;;;;;;;5015744;28;20030;-76
2023/07/23 08:08:28;;;;;;;3.35;2.10;;;;;;;;;;5015817;28;20030;-76
2023/07/23 08:10:55;;;;;;;5.32;2.20;;;;;;;;;;5015450;28;20030;-76
2023/07/23 08:13:21;;;;;;;4.13;1.95;;;;;;;;;;5015744;28;20026;-76
2023/07/23 08:15:47;;;;;;;2.80;2.10;;;;;;;;;;5015388;28;20026;-76
2023/07/23 08:18:13;;;;;;;3.10;1.95;;;;;;;;;;5013921;28;20481;-76
2023/07/23 08:20:39;;;;;;;4.55;2.13;;;;;;;;;;5015406;28;20032;-76
2023/07/23 08:23:04;;;;;;;3.78;2.08;;;;;;;;;;5015310;28;20033;-76
2023/07/23 08:25:30;;;;;;;3.35;2.00;;;;;;;;;;5015264;28;20121;-75
2023/07/23 08:28:00;;;;;;;4.45;2.00;;;;;;;;;;5015151;28;20026;-76
2023/07/23 08:30:27;;;;;;;2.90;2.03;;;;;;;;;;5015539;28;20489;-76
2023/07/23 08:32:55;;;;;;;3.40;2.08;;;;;;;;;;5013852;28;20057;-76
2023/07/23 08:35:21;;;;;;;3.50;1.90;;;;;;;;;;5014993;28;20033;-76
2023/07/23 08:37:46;;;;;;;2.90;1.92;;;;;;;;;;5013659;28;20089;-77
2023/07/23 08:40:12;;;;;;;3.17;1.90;;;;;;;;;;5014377;28;20041;-76
2023/07/23 08:42:48;;;;;;;3.40;2.20;;;;;;;;;;5013606;28;20451;-77
2023/07/23 08:45:19;;;;;;;4.70;1.88;;;;;;;;;;5015301;28;20029;-77
2023/07/23 08:47:47;;;;;;;6.38;1.90;;;;;;;;;;5013955;28;20124;-76
2023/07/23 08:50:13;;;;;;;2.50;2.00;;;;;;;;;;5014840;28;20493;-76
2023/07/23 08:52:41;;;;;;;2.30;1.83;;;;;;;;;;5014706;28;20061;-75
2023/07/23 08:55:07;;;;;;;3.78;1.88;;;;;;;;;;5014724;28;20052;-75
2023/07/23 08:57:33;;;;;;;3.22;2.03;;;;;;;;;;5014663;28;20026;-75
2023/07/23 09:00:00;;;;;;;2.88;1.85;;;;;;;;;;5014592;28;20030;-76
2023/07/23 09:02:26;;;;;;;3.80;2.10;;;;;;;;;;5013611;28;20405;-75
2023/07/23 09:04:51;;;;;;;3.92;1.90;;;;;;;;;;5013305;28;20117;-76
2023/07/23 09:07:17;;;;;;;3.37;1.97;;;;;;;;;;5014611;28;20053;-76
2023/07/23 09:09:42;;;;;;;3.67;1.80;;;;;;;;;;5014498;28;20266;-76
2023/07/23 09:12:08;;;;;;;2.25;1.70;;;;;;;;;;5014029;28;20095;-75
2023/07/23 09:14:41;;;;;;;4.78;1.80;;;;;;;;;;5014298;28;20030;-75
2023/07/23 09:17:17;;;;;;;2.97;1.90;;;;;;;;;;5014493;28;20022;-78
2023/07/23 09:19:42;;;;;;;2.80;1.80;;;;;;;;;;5014231;28;20033;-75
2023/07/23 09:22:08;;;;;;;4.43;1.73;;;;;;;;;;5014262;28;20028;-76
2023/07/23 09:24:35;;;;;;;3.23;1.90;;;;;;;;;;5014243;28;20032;-76
2023/07/23 09:27:02;;;;;;;2.63;1.90;;;;;;;;;;5014256;28;20271;-76
2023/07/23 09:29:35;;;;;;;2.42;1.60;;;;;;;;;;5013956;28;20073;-75
2023/07/23 09:32:00;;;;;;;2.30;1.60;;;;;;;;;;5012751;28;20080;-75
2023/07/23 09:34:26;;;;;;;4.30;1.85;;;;;;;;;;5013976;28;20033;-75
2023/07/23 09:36:53;;;;;;;2.10;1.60;;;;;;;;;;5013961;28;20034;-75
2023/07/23 09:39:18;;;;;;;2.53;1.55;;;;;;;;;;5013966;28;20268;-76
2023/07/23 09:41:43;;;;;;;3.17;2.05;;;;;;;;;;5014027;28;20393;-77
2023/07/23 09:44:13;;;;;;;3.77;1.70;;;;;;;;;;5014156;28;20487;-76
2023/07/23 09:46:44;;;;;;;3.70;1.92;;;;;;;;;;5013714;28;20327;-77
2023/07/23 09:49:09;;;;;;;3.10;1.98;;;;;;;;;;5013955;28;20115;-77
2023/07/23 09:51:36;;;;;;;3.22;1.90;;;;;;;;;;5013570;28;20073;-76
2023/07/23 09:54:03;;;;;;;2.10;1.70;;;;;;;;;;5012447;28;20436;-76
2023/07/23 09:56:29;;;;;;;4.15;1.80;;;;;;;;;;5012364;28;20022;-76
2023/07/23 09:58:57;;;;;;;3.58;1.60;;;;;;;;;;5012397;28;20029;-76
2023/07/23 10:01:23;;;;;;;3.28;1.80;;;;;;;;;;5012653;28;20037;-76
2023/07/23 10:03:49;;;;;;;2.22;1.30;;;;;;;;;;5013673;28;20018;-76
2023/07/23 10:06:16;;;;;;;2.55;1.50;;;;;;;;;;5013547;28;20022;-76
2023/07/23 10:08:43;;;;;;;2.65;1.65;;;;;;;;;;5013445;28;20392;-77
2023/07/23 10:11:12;;;;;;;3.40;1.63;;;;;;;;;;5013746;28;20392;-76
2023/07/23 10:13:39;;;;;;;9.73;1.67;;;;;;;;;;5013443;28;20108;-76
2023/07/23 10:16:28;;;;;;;3.85;1.88;;;;;;;;;;5013350;28;20021;-76
2023/07/23 10:18:55;;;;;;;3.75;1.70;;;;;;;;;;5012052;28;20022;-76
2023/07/23 10:21:21;;;;;;;2.22;1.60;;;;;;;;;;5013938;28;20025;-76
2023/07/23 10:23:56;;;;;;;2.50;1.60;;;;;;;;;;5013470;28;20033;-76
2023/07/23 10:26:26;;;;;;;4.75;1.70;;;;;;;;;;5013304;28;20032;-76
2023/07/23 10:28:57;;;;;;;2.35;1.60;;;;;;;;;;5013168;28;20037;-76
2023/07/23 10:31:27;;;;;;;2.65;1.58;;;;;;;;;;5013902;28;20030;-78
2023/07/23 10:33:53;;;;;;;5.05;1.63;;;;;;;;;;5016334;28;20030;-79
2023/07/23 10:36:21;;;;;;;2.28;1.60;;;;;;;;;;5013496;28;20033;-77
2023/07/23 10:38:47;;;;;;;4.50;1.77;;;;;;;;;;5013148;28;20115;-75
2023/07/23 10:41:13;;;;;;;3.10;1.65;;;;;;;;;;5013256;28;20061;-76
2023/07/23 10:43:43;;;;;;;2.60;1.60;;;;;;;;;;5013176;28;20025;-76
2023/07/23 10:46:11;;;;;;;5.63;1.83;;;;;;;;;;5011976;28;20033;-77
2023/07/23 10:48:44;;;;;;;4.82;1.77;;;;;;;;;;5012885;28;20054;-77
2023/07/23 10:51:11;;;;;;;2.55;1.65;;;;;;;;;;5013250;28;20094;-76
2023/07/23 10:53:41;;;;;;;3.22;1.65;;;;;;;;;;5012975;28;20045;-77
2023/07/23 10:56:27;;;;;;;1.95;1.52;;;;;;;;;;5012985;28;20072;-76
2023/07/23 10:58:58;;;;;;;6.50;1.80;;;;;;;;;;5012059;28;20090;-77
2023/07/23 11:01:25;;;;;;;2.85;1.90;;;;;;;;;;5011700;28;20121;-75
2023/07/23 11:03:54;;;;;;;2.05;1.45;;;;;;;;;;5013516;28;20022;-75
2023/07/23 11:06:27;;;;;;;2.05;1.70;;;;;;;;;;5015651;28;20024;-75
2023/07/23 11:08:55;;;;;;;4.38;1.67;;;;;;;;;;5017069;28;20491;-75
2023/07/23 11:11:28;;;;;;;2.78;1.88;;;;;;;;;;5016753;28;20033;-75
2023/07/23 11:13:53;;;;;;;5.07;2.03;;;;;;;;;;5016780;28;20485;-75
2023/07/23 11:16:19;;;;;;;5.23;1.77;;;;;;;;;;5016504;28;20026;-76
2023/07/23 11:18:45;;;;;;;3.80;1.80;;;;;;;;;;5016594;28;20749;-76
2023/07/23 11:21:14;;;;;;;3.67;1.70;;;;;;;;;;5016836;28;20259;-76
2023/07/23 11:23:39;;;;;;;2.53;1.83;;;;;;;;;;5016742;28;20026;-76
2023/07/23 11:26:04;;;;;;;4.78;1.98;;;;;;;;;;5016637;28;20474;-76
2023/07/23 11:28:32;;;;;;;2.43;1.87;;;;;;;;;;5016325;28;20029;-76
2023/07/23 11:30:58;;;;;;;3.25;2.20;;;;;;;;;;5016288;28;20274;-75
2023/07/23 11:33:33;;;;;;;4.00;1.77;;;;;;;;;;5016369;28;20463;-76
2023/07/23 11:36:01;;;;;;;5.93;3.10;;;;;;;;;;5016212;28;20026;-75
2023/07/23 11:38:32;;;;;;;3.25;2.30;;;;;;;;;;5016161;28;20037;-76
2023/07/23 11:40:59;;;;;;;4.30;2.30;;;;;;;;;;5014857;28;20026;-76
2023/07/23 11:43:25;;;;;;;3.80;2.03;;;;;;;;;;5016406;28;20421;-75
2023/07/23 11:45:51;;;;;;;2.95;1.92;;;;;;;;;;5016258;28;20053;-75
2023/07/23 11:48:18;;;;;;;3.65;1.92;;;;;;;;;;5015955;28;20056;-75
2023/07/23 11:50:45;;;;;;;5.57;1.98;;;;;;;;;;5015941;28;20030;-75
2023/07/23 11:53:10;;;;;;;2.40;1.90;;;;;;;;;;5016442;28;20025;-77
2023/07/23 11:55:36;;;;;;;3.17;1.97;;;;;;;;;;5015869;28;20165;-76
2023/07/23 11:58:02;;;;;;;3.65;2.15;;;;;;;;;;5015832;28;20255;-75
2023/07/23 12:00:31;;;;;;;3.00;1.90;;;;;;;;;;5014530;28;20033;-75
2023/07/23 12:02:58;;;;;;;5.20;2.30;;;;;;;;;;5016272;28;20034;-76
2023/07/23 12:05:24;;;;;;;3.85;1.90;;;;;;;;;;5015714;28;20388;-74
2023/07/23 12:07:52;;;;;;;3.00;2.20;;;;;;;;;;5015594;28;20034;-75
2023/07/23 12:10:18;;;;;;;4.13;2.03;;;;;;;;;;5015603;28;20025;-75
2023/07/23 12:12:45;;;;;;;2.83;2.00;;;;;;;;;;5015515;28;20399;-75
2023/07/23 12:15:12;;;;;;;3.05;2.05;;;;;;;;;;5015309;28;20030;-75
2023/07/23 12:17:38;;;;;;;3.67;1.95;;;;;;;;;;5015353;28;20104;-76
2023/07/23 12:20:03;;;;;;;3.35;1.80;;;;;;;;;;5015034;28;20413;-75
2023/07/23 12:22:31;;;;;;;3.65;1.98;;;;;;;;;;5015656;28;20535;-75
2023/07/23 12:24:57;;;;;;;5.28;2.33;;;;;;;;;;5015320;28;20018;-75
2023/07/23 12:27:22;;;;;;;4.00;2.10;;;;;;;;;;5015617;28;20084;-75
2023/07/23 12:29:48;;;;;;;5.28;2.00;;;;;;;;;;5015225;28;20029;-77
2023/07/23 12:32:21;;;;;;;4.60;2.00;;;;;;;;;;5015292;28;20040;-75
2023/07/23 12:34:47;;;;;;;4.57;2.33;;;;;;;;;;5013800;28;20488;-75
2023/07/23 12:37:15;;;;;;;3.92;2.15;;;;;;;;;;5015069;28;20127;-76
2023/07/23 12:39:41;;;;;;;3.00;2.22;;;;;;;;;;5015037;28;20025;-76
2023/07/23 12:42:06;;;;;;;4.30;2.20;;;;;;;;;;5015001;28;20021;-75
2023/07/23 12:44:31;;;;;;;5.00;2.05;;;;;;;;;;5015270;28;20029;-76
2023/07/23 12:46:57;;;;;;;6.25;2.20;;;;;;;;;;5015130;28;20186;-76
2023/07/23 12:49:22;;;;;;;2.92;2.40;;;;;;;;;;5014646;28;20057;-76
2023/07/23 12:51:47;;;;;;;3.45;1.92;;;;;;;;;;5015089;28;20109;-75
2023/07/23 12:54:13;;;;;;;4.82;2.22;;;;;;;;;;5015073;28;20032;-75
2023/07/23 12:56:38;;;;;;;4.80;2.30;;;;;;;;;;5014918;28;20485;-75
2023/07/23 12:59:04;;;;;;;3.92;1.98;;;;;;;;;;5013348;28;20260;-75
2023/07/23 13:01:29;;;;;;;3.15;2.20;;;;;;;;;;5014614;28;20025;-75
2023/07/23 13:03:54;;;;;;;5.85;1.88;;;;;;;;;;5014590;28;20481;-75
2023/07/23 13:06:19;;;;;;;4.17;2.43;;;;;;;;;;5014805;28;20401;-75
2023/07/23 13:08:45;;;;;;;5.03;2.45;;;;;;;;;;5014435;28;20350;-75
2023/07/23 13:11:10;;;;;;;3.60;2.17;;;;;;;;;;5014536;28;20024;-76
2023/07/23 13:13:36;;;;;;;6.88;2.60;;;;;;;;;;5014710;28;20034;-75
2023/07/23 13:16:01;;;;;;;27.33;4.87;;;;;;;;;;5014734;28;20018;-75
2023/07/23 13:18:27;;;;;;;6.53;2.40;;;;;;;;;;5014242;28;20334;-75
2023/07/23 13:20:52;;;;;;;3.28;2.40;;;;;;;;;;5014599;28;20033;-75
2023/07/23 13:23:17;;;;;;;5.47;2.67;;;;;;;;;;5014254;28;20034;-76
2023/07/23 13:25:44;;;;;;;3.75;2.60;;;;;;;;;;5014215;28;20033;-75
2023/07/23 13:28:09;;;;;;;5.50;2.65;;;;;;;;;;5013598;28;20040;-75
2023/07/23 13:30:34;;;;;;;3.05;2.38;;;;;;;;;;5014383;28;20026;-75
2023/07/23 13:33:00;;;;;;;5.97;2.70;;;;;;;;;;5014175;28;20117;-75
2023/07/23 13:35:26;;;;;;;4.40;2.72;;;;;;;;;;5013994;28;20373;-75
2023/07/23 13:37:52;;;;;;;3.47;2.40;;;;;;;;;;5013943;28;20033;-76
2023/07/23 13:40:17;;;;;;;6.38;2.72;;;;;;;;;;5013990;28;20088;-76
2023/07/23 13:42:42;;;;;;;3.00;2.35;;;;;;;;;;5013893;28;20099;-76
2023/07/23 13:45:08;;;;;;;3.87;2.43;;;;;;;;;;5013966;28;20455;-75
2023/07/23 13:47:33;;;;;;;3.85;2.58;;;;;;;;;;5013734;28;20251;-75
2023/07/23 13:49:59;;;;;;;4.72;2.50;;;;;;;;;;5013704;28;20124;-75
2023/07/23 13:52:24;;;;;;;5.63;3.05;;;;;;;;;;5013824;28;20028;-76
2023/07/23 13:54:50;;;;;;;3.80;2.95;;;;;;;;;;5012400;28;20021;-76
2023/07/23 13:57:15;;;;;;;4.40;3.10;;;;;;;;;;5012661;28;20026;-75
2023/07/23 13:59:40;;;;;;;5.63;2.75;;;;;;;;;;5012546;28;20057;-75
2023/07/23 14:02:06;;;;;;;5.40;2.80;;;;;;;;;;5013533;28;20026;-76
2023/07/23 14:04:31;;;;;;;6.03;2.77;;;;;;;;;;5013590;28;20626;-76
2023/07/23 14:06:56;;;;;;;3.40;2.47;;;;;;;;;;5013745;28;20402;-76
2023/07/23 14:09:21;;;;;;;3.33;2.53;;;;;;;;;;5013687;28;20262;-76
2023/07/23 14:11:47;;;;;;;4.87;2.90;;;;;;;;;;5013744;28;20711;-76
2023/07/23 14:14:12;;;;;;;2.73;2.20;;;;;;;;;;5013706;28;20353;-75
2023/07/23 14:16:37;;;;;;;3.08;2.40;;;;;;;;;;5012048;28;20294;-75
2023/07/23 14:19:03;;;;;;;5.43;2.10;;;;;;;;;;5013325;28;20029;-75
2023/07/23 14:21:28;;;;;;;5.05;2.28;;;;;;;;;;5012110;28;20260;-75
2023/07/23 14:23:53;;;;;;;3.65;2.40;;;;;;;;;;5013051;28;20021;-75
2023/07/23 14:26:19;;;;;;;4.75;2.42;;;;;;;;;;5013006;28;20535;-75
2023/07/23 14:28:44;;;;;;;3.40;2.20;;;;;;;;;;5011168;28;20049;-75
2023/07/23 14:31:10;;;;;;;2.90;2.20;;;;;;;;;;5011748;28;20275;-75
2023/07/23 14:33:36;;;;;;;3.20;2.30;;;;;;;;;;5013456;28;20025;-75
2023/07/23 14:36:02;;;;;;;4.47;1.90;;;;;;;;;;5013429;28;20499;-76